Elisabeth — LHEA — position and weather

sailwx.info

Track history (hours):
 
Tides and Currents Weather Stations Pressure Air Temp Water Temp Dewpoint Dewpoint Depression Visibility Wind Speed Wind Dir Waves Ship Positions

Elisabeth

Last reported at 2014-Dec-05 09:30 UTC. Time now 2014-Dec-19 23:29 UTC.
Position N 58°22' E 005°44'.
Warning: this ship's position is 14 days out of date.

Length 61 m; draft 5.8 m.

Type: Fishing. MMSI: 259166000.

Date/timePositionNaut miles runAvg speedWind from/ knotsBaromVisibWave heightAir tempDewpointWater temp
2014-Dec-05 09:30N 58°22' E 005°44'8 8.4
2014-Dec-05 08:32N 58°24' E 005°59'2 2.4
2014-Dec-05 07:33N 58°27' E 005°59'0 0.0
2014-Dec-05 06:33N 58°27' E 005°59'0 0.0
2014-Dec-05 05:33N 58°27' E 005°59'0 0.0
2014-Dec-05 04:33N 58°27' E 005°59'0 0.0
2014-Dec-05 03:33N 58°27' E 005°59'0 0.0
2014-Dec-05 02:33N 58°27' E 005°59'0 0.0
2014-Dec-05 01:33N 58°27' E 005°59'0 0.0
2014-Dec-05 00:34N 58°27' E 005°59'0 0.0
2014-Dec-04 23:33N 58°27' E 005°59'0 0.0
2014-Dec-04 22:33N 58°27' E 005°59'0 0.0
2014-Dec-04 21:33N 58°27' E 005°59'0 0.0
2014-Dec-04 20:33N 58°27' E 005°59'0 0.0
2014-Dec-04 19:34N 58°27' E 005°59'0 0.0
2014-Dec-04 18:33N 58°27' E 005°59'1 1.2
2014-Dec-04 17:33N 58°25' E 005°59'9 8.4
2014-Dec-04 16:32N 58°28' E 005°44'2210.7
2014-Dec-04 14:27N 58°45' E 005°16'910.4
2014-Dec-04 13:34N 58°52' E 005°04'9510.4
2014-Dec-04 04:26N 59°45' E 002°30'1011.9
2014-Dec-04 03:34N 59°45' E 002°09'1211.8
2014-Dec-04 02:33N 59°46' E 001°46'  
2014-Nov-30 10:09N 58°22' E 005°36'711.3
2014-Nov-30 09:33N 58°23' E 005°49'7 6.7
2014-Nov-30 08:34N 58°27' E 005°59'0 0.0
2014-Nov-30 07:34N 58°27' E 005°59'0 0.0
2014-Nov-30 06:34N 58°27' E 005°59'0 0.0
2014-Nov-30 05:34N 58°27' E 005°59'0 0.0
2014-Nov-30 04:34N 58°27' E 005°59'0 0.0
2014-Nov-30 03:34N 58°27' E 005°59'0 0.0
2014-Nov-30 02:34N 58°27' E 005°59'0 0.0
2014-Nov-30 01:34N 58°27' E 005°59'0 0.0
2014-Nov-30 00:34N 58°27' E 005°59'0 0.0
2014-Nov-29 23:33N 58°27' E 005°59'0 0.0
2014-Nov-29 22:34N 58°27' E 005°59'0 0.0
2014-Nov-29 21:34N 58°27' E 005°59'0 0.0
2014-Nov-29 20:34N 58°27' E 005°59'0 0.0
2014-Nov-29 19:34N 58°27' E 005°59'0 0.0
2014-Nov-29 18:34N 58°27' E 005°59'0 0.0
2014-Nov-29 17:34N 58°27' E 005°59'0 0.0
2014-Nov-29 16:34N 58°27' E 005°59'0 0.0
2014-Nov-29 15:34N 58°27' E 005°59'0 0.0
2014-Nov-29 14:33N 58°27' E 005°59'0 0.0
2014-Nov-29 13:33N 58°27' E 005°59'0 0.0
2014-Nov-29 12:34N 58°27' E 005°59'0 0.0
2014-Nov-29 11:34N 58°27' E 005°59'0 0.0
2014-Nov-29 10:34N 58°27' E 005°59'0 0.0
2014-Nov-29 09:34N 58°27' E 005°59'0 0.0
2014-Nov-29 08:34N 58°27' E 005°59'0 0.0
2014-Nov-29 07:34N 58°27' E 005°59'0 0.0
2014-Nov-29 06:34N 58°27' E 005°59'0 0.0
2014-Nov-29 05:34N 58°27' E 005°59'0 0.0
2014-Nov-29 04:34N 58°27' E 005°59'0 0.0
2014-Nov-29 03:34N 58°27' E 005°59'0 0.0
2014-Nov-29 02:34N 58°27' E 005°59'0 0.0
2014-Nov-29 01:34N 58°27' E 005°59'0 0.0
2014-Nov-29 00:33N 58°27' E 005°59'0 0.0
2014-Nov-28 23:33N 58°27' E 005°59'0 0.0
2014-Nov-28 22:34N 58°27' E 005°59'0 0.0
2014-Nov-28 21:34N 58°27' E 005°59'0 0.0
2014-Nov-28 20:34N 58°27' E 005°59'0 0.0
2014-Nov-28 19:34N 58°27' E 005°59'0 0.0
2014-Nov-28 18:34N 58°27' E 005°59'0 0.0
2014-Nov-28 17:34N 58°27' E 005°59'0 0.0
2014-Nov-28 16:34N 58°27' E 005°59'0 0.0
2014-Nov-28 15:34N 58°27' E 005°59'0 0.0
2014-Nov-28 14:33N 58°27' E 005°59'0 0.0
2014-Nov-28 13:34N 58°27' E 005°59'0 0.0
2014-Nov-28 12:34N 58°27' E 005°59'0 0.0
2014-Nov-28 11:34N 58°27' E 005°59'0 0.0
2014-Nov-28 10:34N 58°27' E 005°59'0 0.0
2014-Nov-28 09:34N 58°27' E 005°59'0 0.0
2014-Nov-28 08:34N 58°27' E 005°59'0 0.0
2014-Nov-28 07:34N 58°27' E 005°59'0 0.0
2014-Nov-28 06:34N 58°27' E 005°59'0 0.0
2014-Nov-28 05:33N 58°27' E 005°59'0 0.0
2014-Nov-28 04:34N 58°27' E 005°59'0 0.0
2014-Nov-28 03:34N 58°27' E 005°59'0 0.0
2014-Nov-28 02:34N 58°27' E 005°59'0 0.0
2014-Nov-28 01:34N 58°27' E 005°59'0 0.0
2014-Nov-28 00:34N 58°27' E 005°59'0 0.0
2014-Nov-27 23:34N 58°27' E 005°59'0 0.0
2014-Nov-27 22:34N 58°27' E 005°59'0 0.0
2014-Nov-27 21:33N 58°27' E 005°59'0 0.0
2014-Nov-27 20:34N 58°27' E 005°59'0 0.0
2014-Nov-27 19:34N 58°27' E 005°59'0 0.0
2014-Nov-27 18:34N 58°27' E 005°59'0 0.0
2014-Nov-27 17:34N 58°27' E 005°59'0 0.0
2014-Nov-27 16:34N 58°27' E 005°59'0 0.0
2014-Nov-27 15:34N 58°27' E 005°59'0 0.0
2014-Nov-27 14:34N 58°27' E 005°59'3 2.7
2014-Nov-27 13:34N 58°24' E 005°59'2 1.5
2014-Nov-27 12:33N 58°23' E 005°58'4 4.0
2014-Nov-27 11:34N 58°27' E 005°59'0 0.0
2014-Nov-27 10:34N 58°27' E 005°59'0 0.1
2014-Nov-27 09:34N 58°27' E 005°59'0 0.0
2014-Nov-27 08:34N 58°27' E 005°59'0 0.0
2014-Nov-27 07:34N 58°27' E 005°59'0 0.0
2014-Nov-27 06:34N 58°27' E 005°59'0 0.0
2014-Nov-27 05:34N 58°27' E 005°59'0 0.0
2014-Nov-27 04:33N 58°27' E 005°59'0 0.0
2014-Nov-27 03:33N 58°27' E 005°59'0 0.0
2014-Nov-27 02:33N 58°27' E 005°59'0 0.0
2014-Nov-27 01:33N 58°27' E 005°59'0 0.0
2014-Nov-27 00:33N 58°27' E 005°59'0 0.0
2014-Nov-26 23:33N 58°27' E 005°59'0 0.3
2014-Nov-26 22:33N 58°27' E 005°59'0 0.0
2014-Nov-26 21:33N 58°27' E 005°59'0 0.0
2014-Nov-26 20:33N 58°27' E 005°59'0 0.0
2014-Nov-26 19:33N 58°27' E 005°59'2 2.4
2014-Nov-26 18:33N 58°24' E 005°60'9 9.5
2014-Nov-26 17:34N 58°16' E 006°06'8 8.3
2014-Nov-26 16:33N 58°07' E 006°09'  
Track history (hours):
 
Tides and Currents Weather Stations Pressure Air Temp Water Temp Dewpoint Dewpoint Depression Visibility Wind Speed Wind Dir Waves Ship Positions

Elisabeth

Last reported at 2014-Dec-05 09:30 UTC. Time now 2014-Dec-19 23:29 UTC.
Position N 58°22' E 005°44'.
Warning: this ship's position is 14 days out of date.

Length 61 m; draft 5.8 m.

Type: Fishing. MMSI: 259166000.

Date/timePositionNaut miles runAvg speedWind from/ knotsBaromVisibWave heightAir tempDewpointWater temp
2014-Dec-05 09:30N 58°22' E 005°44'8 8.4
2014-Dec-05 08:32N 58°24' E 005°59'2 2.4
2014-Dec-05 07:33N 58°27' E 005°59'0 0.0
2014-Dec-05 06:33N 58°27' E 005°59'0 0.0
2014-Dec-05 05:33N 58°27' E 005°59'0 0.0
2014-Dec-05 04:33N 58°27' E 005°59'0 0.0
2014-Dec-05 03:33N 58°27' E 005°59'0 0.0
2014-Dec-05 02:33N 58°27' E 005°59'0 0.0
2014-Dec-05 01:33N 58°27' E 005°59'0 0.0
2014-Dec-05 00:34N 58°27' E 005°59'0 0.0
2014-Dec-04 23:33N 58°27' E 005°59'0 0.0
2014-Dec-04 22:33N 58°27' E 005°59'0 0.0
2014-Dec-04 21:33N 58°27' E 005°59'0 0.0
2014-Dec-04 20:33N 58°27' E 005°59'0 0.0
2014-Dec-04 19:34N 58°27' E 005°59'0 0.0
2014-Dec-04 18:33N 58°27' E 005°59'1 1.2
2014-Dec-04 17:33N 58°25' E 005°59'9 8.4
2014-Dec-04 16:32N 58°28' E 005°44'2210.7
2014-Dec-04 14:27N 58°45' E 005°16'910.4
2014-Dec-04 13:34N 58°52' E 005°04'9510.4
2014-Dec-04 04:26N 59°45' E 002°30'1011.9
2014-Dec-04 03:34N 59°45' E 002°09'1211.8
2014-Dec-04 02:33N 59°46' E 001°46'  
2014-Nov-30 10:09N 58°22' E 005°36'711.3
2014-Nov-30 09:33N 58°23' E 005°49'7 6.7
2014-Nov-30 08:34N 58°27' E 005°59'0 0.0
2014-Nov-30 07:34N 58°27' E 005°59'0 0.0
2014-Nov-30 06:34N 58°27' E 005°59'0 0.0
2014-Nov-30 05:34N 58°27' E 005°59'0 0.0
2014-Nov-30 04:34N 58°27' E 005°59'0 0.0
2014-Nov-30 03:34N 58°27' E 005°59'0 0.0
2014-Nov-30 02:34N 58°27' E 005°59'0 0.0
2014-Nov-30 01:34N 58°27' E 005°59'0 0.0
2014-Nov-30 00:34N 58°27' E 005°59'0 0.0
2014-Nov-29 23:33N 58°27' E 005°59'0 0.0
2014-Nov-29 22:34N 58°27' E 005°59'0 0.0
2014-Nov-29 21:34N 58°27' E 005°59'0 0.0
2014-Nov-29 20:34N 58°27' E 005°59'0 0.0
2014-Nov-29 19:34N 58°27' E 005°59'0 0.0
2014-Nov-29 18:34N 58°27' E 005°59'0 0.0
2014-Nov-29 17:34N 58°27' E 005°59'0 0.0
2014-Nov-29 16:34N 58°27' E 005°59'0 0.0
2014-Nov-29 15:34N 58°27' E 005°59'0 0.0
2014-Nov-29 14:33N 58°27' E 005°59'0 0.0
2014-Nov-29 13:33N 58°27' E 005°59'0 0.0
2014-Nov-29 12:34N 58°27' E 005°59'0 0.0
2014-Nov-29 11:34N 58°27' E 005°59'0 0.0
2014-Nov-29 10:34N 58°27' E 005°59'0 0.0
2014-Nov-29 09:34N 58°27' E 005°59'0 0.0
2014-Nov-29 08:34N 58°27' E 005°59'0 0.0
2014-Nov-29 07:34N 58°27' E 005°59'0 0.0
2014-Nov-29 06:34N 58°27' E 005°59'0 0.0
2014-Nov-29 05:34N 58°27' E 005°59'0 0.0
2014-Nov-29 04:34N 58°27' E 005°59'0 0.0
2014-Nov-29 03:34N 58°27' E 005°59'0 0.0
2014-Nov-29 02:34N 58°27' E 005°59'0 0.0
2014-Nov-29 01:34N 58°27' E 005°59'0 0.0
2014-Nov-29 00:33N 58°27' E 005°59'0 0.0
2014-Nov-28 23:33N 58°27' E 005°59'0 0.0
2014-Nov-28 22:34N 58°27' E 005°59'0 0.0
2014-Nov-28 21:34N 58°27' E 005°59'0 0.0
2014-Nov-28 20:34N 58°27' E 005°59'0 0.0
2014-Nov-28 19:34N 58°27' E 005°59'0 0.0
2014-Nov-28 18:34N 58°27' E 005°59'0 0.0
2014-Nov-28 17:34N 58°27' E 005°59'0 0.0
2014-Nov-28 16:34N 58°27' E 005°59'0 0.0
2014-Nov-28 15:34N 58°27' E 005°59'0 0.0
2014-Nov-28 14:33N 58°27' E 005°59'0 0.0
2014-Nov-28 13:34N 58°27' E 005°59'0 0.0
2014-Nov-28 12:34N 58°27' E 005°59'0 0.0
2014-Nov-28 11:34N 58°27' E 005°59'0 0.0
2014-Nov-28 10:34N 58°27' E 005°59'0 0.0
2014-Nov-28 09:34N 58°27' E 005°59'0 0.0
2014-Nov-28 08:34N 58°27' E 005°59'0 0.0
2014-Nov-28 07:34N 58°27' E 005°59'0 0.0
2014-Nov-28 06:34N 58°27' E 005°59'0 0.0
2014-Nov-28 05:33N 58°27' E 005°59'0 0.0
2014-Nov-28 04:34N 58°27' E 005°59'0 0.0
2014-Nov-28 03:34N 58°27' E 005°59'0 0.0
2014-Nov-28 02:34N 58°27' E 005°59'0 0.0
2014-Nov-28 01:34N 58°27' E 005°59'0 0.0
2014-Nov-28 00:34N 58°27' E 005°59'0 0.0
2014-Nov-27 23:34N 58°27' E 005°59'0 0.0
2014-Nov-27 22:34N 58°27' E 005°59'0 0.0
2014-Nov-27 21:33N 58°27' E 005°59'0 0.0
2014-Nov-27 20:34N 58°27' E 005°59'0 0.0
2014-Nov-27 19:34N 58°27' E 005°59'0 0.0
2014-Nov-27 18:34N 58°27' E 005°59'0 0.0
2014-Nov-27 17:34N 58°27' E 005°59'0 0.0
2014-Nov-27 16:34N 58°27' E 005°59'0 0.0
2014-Nov-27 15:34N 58°27' E 005°59'0 0.0
2014-Nov-27 14:34N 58°27' E 005°59'3 2.7
2014-Nov-27 13:34N 58°24' E 005°59'2 1.5
2014-Nov-27 12:33N 58°23' E 005°58'4 4.0
2014-Nov-27 11:34N 58°27' E 005°59'0 0.0
2014-Nov-27 10:34N 58°27' E 005°59'0 0.1
2014-Nov-27 09:34N 58°27' E 005°59'0 0.0
2014-Nov-27 08:34N 58°27' E 005°59'0 0.0
2014-Nov-27 07:34N 58°27' E 005°59'0 0.0
2014-Nov-27 06:34N 58°27' E 005°59'0 0.0
2014-Nov-27 05:34N 58°27' E 005°59'0 0.0
2014-Nov-27 04:33N 58°27' E 005°59'0 0.0
2014-Nov-27 03:33N 58°27' E 005°59'0 0.0
2014-Nov-27 02:33N 58°27' E 005°59'0 0.0
2014-Nov-27 01:33N 58°27' E 005°59'0 0.0
2014-Nov-27 00:33N 58°27' E 005°59'0 0.0
2014-Nov-26 23:33N 58°27' E 005°59'0 0.3
2014-Nov-26 22:33N 58°27' E 005°59'0 0.0
2014-Nov-26 21:33N 58°27' E 005°59'0 0.0
2014-Nov-26 20:33N 58°27' E 005°59'0 0.0
2014-Nov-26 19:33N 58°27' E 005°59'2 2.4
2014-Nov-26 18:33N 58°24' E 005°60'9 9.5
2014-Nov-26 17:34N 58°16' E 006°06'8 8.3
2014-Nov-26 16:33N 58°07' E 006°09'  

Dump ship's entire track history